Time;durP1;ratioP1;P1;durP2;ratioP2;P2;SDS_P1;SDS_P2;PMS_P1;PMS_P2;Temp;Humidity;BMP_temperature;BMP_pressure;BME280_temperature;BME280_humidity;BME280_pressure;Samples;Min_cycle;Max_cycle;Signal;HPM_P1;HPM_P2
2024/01/13 00:00:21;;;;;;;22.48;9.15;;;;;;;;;;5014373;28;20052;-71
2024/01/13 00:02:48;;;;;;;22.85;9.35;;;;;;;;;;5026815;28;20044;-71
2024/01/13 00:05:14;;;;;;;28.90;10.07;;;;;;;;;;5026054;28;20044;-71
2024/01/13 00:07:40;;;;;;;25.95;9.52;;;;;;;;;;5027318;28;20049;-71
2024/01/13 00:10:06;;;;;;;21.17;8.90;;;;;;;;;;5028534;28;20468;-71
2024/01/13 00:12:32;;;;;;;24.00;8.35;;;;;;;;;;5025826;28;20393;-70
2024/01/13 00:14:58;;;;;;;20.42;8.65;;;;;;;;;;5029610;28;20160;-71
2024/01/13 00:17:24;;;;;;;19.55;8.18;;;;;;;;;;5029519;28;20539;-71
2024/01/13 00:19:50;;;;;;;16.67;7.03;;;;;;;;;;5021696;28;20049;-71
2024/01/13 00:22:16;;;;;;;13.18;7.25;;;;;;;;;;5026693;28;20143;-71
2024/01/13 00:24:42;;;;;;;19.42;7.93;;;;;;;;;;5024862;28;20642;-71
2024/01/13 00:27:08;;;;;;;17.77;7.35;;;;;;;;;;5027370;28;20055;-71
2024/01/13 00:29:34;;;;;;;16.17;7.60;;;;;;;;;;5027802;28;20080;-71
2024/01/13 00:32:00;;;;;;;17.48;8.35;;;;;;;;;;5025172;28;20194;-70
2024/01/13 00:34:26;;;;;;;15.57;6.95;;;;;;;;;;5025778;28;20063;-70
2024/01/13 00:36:52;;;;;;;17.75;7.72;;;;;;;;;;5025805;28;20053;-70
2024/01/13 00:39:18;;;;;;;17.85;6.97;;;;;;;;;;5026697;28;20068;-70
2024/01/13 00:41:44;;;;;;;16.15;7.80;;;;;;;;;;5027849;28;20505;-70
2024/01/13 00:44:10;;;;;;;15.82;6.45;;;;;;;;;;5028129;28;20049;-70
2024/01/13 00:46:36;;;;;;;18.23;7.70;;;;;;;;;;5026035;28;20057;-70
2024/01/13 00:49:02;;;;;;;16.65;7.35;;;;;;;;;;5029397;28;20079;-71
2024/01/13 00:51:30;;;;;;;15.52;6.57;;;;;;;;;;5025226;28;20426;-70
2024/01/13 00:53:56;;;;;;;16.15;7.03;;;;;;;;;;5028835;28;20056;-70
2024/01/13 00:56:22;;;;;;;16.55;7.30;;;;;;;;;;5023607;28;20083;-70
2024/01/13 00:58:48;;;;;;;14.85;7.03;;;;;;;;;;5028602;28;20076;-71
2024/01/13 01:01:15;;;;;;;16.45;7.03;;;;;;;;;;5011362;28;20128;-71
2024/01/13 01:03:41;;;;;;;17.25;7.25;;;;;;;;;;5028186;28;20041;-71
2024/01/13 01:06:07;;;;;;;19.98;6.70;;;;;;;;;;5027687;28;20123;-71
2024/01/13 01:08:33;;;;;;;21.80;7.75;;;;;;;;;;5027567;28;20052;-71
2024/01/13 01:10:59;;;;;;;16.13;7.63;;;;;;;;;;5025076;28;20045;-71
2024/01/13 01:13:25;;;;;;;12.18;6.13;;;;;;;;;;5027344;28;20068;-71
2024/01/13 01:15:51;;;;;;;18.55;6.60;;;;;;;;;;5027184;28;20139;-71
2024/01/13 01:18:17;;;;;;;19.10;7.53;;;;;;;;;;5027759;28;20057;-71
2024/01/13 01:20:43;;;;;;;12.85;6.47;;;;;;;;;;5028079;28;20143;-71
2024/01/13 01:23:09;;;;;;;18.73;7.38;;;;;;;;;;5025557;28;20974;-71
2024/01/13 01:25:35;;;;;;;16.73;6.25;;;;;;;;;;5024457;28;20061;-71
2024/01/13 01:28:01;;;;;;;17.08;7.13;;;;;;;;;;5027914;28;20136;-71
2024/01/13 01:30:27;;;;;;;14.90;6.85;;;;;;;;;;5025121;28;20060;-71
2024/01/13 01:32:53;;;;;;;15.50;7.20;;;;;;;;;;5029336;28;20757;-71
2024/01/13 01:35:19;;;;;;;15.05;7.22;;;;;;;;;;5024394;28;20127;-71
2024/01/13 01:37:45;;;;;;;15.90;7.50;;;;;;;;;;5026880;28;20056;-70
2024/01/13 01:40:14;;;;;;;18.10;7.95;;;;;;;;;;5022736;28;20100;-71
2024/01/13 01:42:40;;;;;;;17.92;8.20;;;;;;;;;;5028347;28;20061;-71
2024/01/13 01:45:07;;;;;;;16.30;8.07;;;;;;;;;;5024576;28;20287;-70
2024/01/13 01:47:33;;;;;;;17.98;9.02;;;;;;;;;;5029048;28;20053;-71
2024/01/13 01:49:59;;;;;;;17.95;9.48;;;;;;;;;;5024529;28;20045;-71
2024/01/13 01:52:26;;;;;;;17.75;9.07;;;;;;;;;;5025125;28;20825;-70
2024/01/13 01:54:52;;;;;;;21.40;9.32;;;;;;;;;;5023947;28;20067;-71
2024/01/13 01:57:19;;;;;;;24.90;9.80;;;;;;;;;;5024309;28;20152;-71
2024/01/13 01:59:45;;;;;;;21.08;10.25;;;;;;;;;;5025965;28;20064;-71
2024/01/13 02:02:11;;;;;;;22.55;9.95;;;;;;;;;;5025935;28;20053;-70
2024/01/13 02:04:37;;;;;;;20.38;9.32;;;;;;;;;;5024919;28;21172;-71
2024/01/13 02:07:03;;;;;;;23.75;10.30;;;;;;;;;;5026148;28;20144;-70
2024/01/13 02:09:30;;;;;;;21.42;9.95;;;;;;;;;;5025218;28;20057;-71
2024/01/13 02:11:56;;;;;;;21.70;10.38;;;;;;;;;;5026532;28;20174;-71
2024/01/13 02:14:22;;;;;;;22.35;10.40;;;;;;;;;;5026487;28;20049;-71
2024/01/13 02:16:48;;;;;;;23.63;10.20;;;;;;;;;;5028270;28;20048;-70
2024/01/13 02:19:14;;;;;;;25.67;10.40;;;;;;;;;;5025549;28;20049;-71
2024/01/13 02:21:40;;;;;;;24.17;10.63;;;;;;;;;;5025236;28;22206;-71
2024/01/13 02:24:06;;;;;;;23.42;11.25;;;;;;;;;;5024829;28;20037;-71
2024/01/13 02:26:34;;;;;;;23.42;11.32;;;;;;;;;;5022306;28;20060;-70
2024/01/13 02:29:00;;;;;;;21.23;10.77;;;;;;;;;;5027596;28;20057;-71
2024/01/13 02:31:26;;;;;;;19.20;10.85;;;;;;;;;;5024894;28;20119;-71
2024/01/13 02:33:53;;;;;;;20.92;10.93;;;;;;;;;;5025822;28;20461;-70
2024/01/13 02:36:19;;;;;;;24.10;11.52;;;;;;;;;;5023275;28;20033;-71
2024/01/13 02:38:45;;;;;;;20.42;10.52;;;;;;;;;;5021871;28;20111;-71
2024/01/13 02:41:11;;;;;;;20.77;11.25;;;;;;;;;;5023209;28;20413;-71
2024/01/13 02:43:37;;;;;;;22.25;11.13;;;;;;;;;;5025289;28;20440;-71
2024/01/13 02:46:04;;;;;;;20.10;11.10;;;;;;;;;;5024987;28;20045;-71
2024/01/13 02:48:38;;;;;;;25.80;11.27;;;;;;;;;;5027772;28;20120;-71
2024/01/13 02:51:05;;;;;;;30.33;12.18;;;;;;;;;;5023210;28;20068;-71
2024/01/13 02:53:31;;;;;;;25.60;11.68;;;;;;;;;;5026237;28;20056;-70
2024/01/13 02:55:57;;;;;;;23.95;11.35;;;;;;;;;;5023847;28;20058;-70
2024/01/13 02:58:23;;;;;;;25.65;12.20;;;;;;;;;;5026169;28;20115;-71
2024/01/13 03:00:49;;;;;;;24.73;10.77;;;;;;;;;;5025422;28;20456;-70
2024/01/13 03:03:15;;;;;;;23.15;11.70;;;;;;;;;;5026949;28;20096;-71
2024/01/13 03:05:41;;;;;;;20.00;10.60;;;;;;;;;;5023068;28;20136;-71
2024/01/13 03:08:07;;;;;;;20.13;10.20;;;;;;;;;;5023920;28;20409;-71
2024/01/13 03:10:33;;;;;;;23.75;10.55;;;;;;;;;;5020500;28;20044;-71
2024/01/13 03:12:59;;;;;;;20.67;10.23;;;;;;;;;;5025774;28;20098;-71
2024/01/13 03:15:25;;;;;;;24.42;11.07;;;;;;;;;;5022267;28;20057;-71
2024/01/13 03:17:51;;;;;;;23.48;10.60;;;;;;;;;;5026881;28;20048;-71
2024/01/13 03:20:17;;;;;;;20.70;9.57;;;;;;;;;;5027797;28;20464;-71
2024/01/13 03:22:45;;;;;;;20.00;10.25;;;;;;;;;;5027773;28;20045;-71
2024/01/13 03:25:11;;;;;;;15.77;9.35;;;;;;;;;;5029263;28;20053;-71
2024/01/13 03:27:37;;;;;;;21.80;9.75;;;;;;;;;;5027669;28;20056;-71
2024/01/13 03:30:03;;;;;;;19.95;8.90;;;;;;;;;;5028030;28;20499;-71
2024/01/13 03:32:29;;;;;;;17.80;8.80;;;;;;;;;;5030919;28;20052;-71
2024/01/13 03:34:55;;;;;;;18.67;10.00;;;;;;;;;;5047844;28;20041;-71
2024/01/13 03:37:21;;;;;;;21.63;9.60;;;;;;;;;;5030656;28;20041;-70
2024/01/13 03:39:47;;;;;;;20.92;9.80;;;;;;;;;;5026072;28;20061;-70
2024/01/13 03:42:13;;;;;;;22.00;9.90;;;;;;;;;;5027696;28;20040;-70
2024/01/13 03:44:40;;;;;;;20.92;10.00;;;;;;;;;;5026848;28;20110;-70
2024/01/13 03:47:06;;;;;;;19.55;9.25;;;;;;;;;;5010005;28;20060;-71
2024/01/13 03:49:32;;;;;;;15.35;9.27;;;;;;;;;;5027282;28;20056;-71
2024/01/13 03:51:58;;;;;;;19.83;9.25;;;;;;;;;;5026647;28;20052;-71
2024/01/13 03:54:24;;;;;;;18.35;9.57;;;;;;;;;;5024831;28;20048;-71
2024/01/13 03:56:51;;;;;;;20.13;10.00;;;;;;;;;;5028231;28;20033;-71
2024/01/13 03:59:17;;;;;;;20.60;9.98;;;;;;;;;;5029365;28;20120;-71
2024/01/13 04:01:43;;;;;;;24.48;9.80;;;;;;;;;;5028893;28;20804;-71
2024/01/13 04:04:09;;;;;;;18.52;9.77;;;;;;;;;;5026506;28;20049;-71
2024/01/13 04:06:39;;;;;;;21.75;9.52;;;;;;;;;;5025578;28;20051;-71
2024/01/13 04:09:06;;;;;;;15.45;9.43;;;;;;;;;;5028418;28;20048;-71
2024/01/13 04:11:32;;;;;;;21.83;9.30;;;;;;;;;;5026636;28;20087;-71
2024/01/13 04:13:58;;;;;;;15.95;8.63;;;;;;;;;;5027816;28;20490;-71
2024/01/13 04:16:24;;;;;;;15.98;8.13;;;;;;;;;;5026375;28;20083;-71
2024/01/13 04:18:50;;;;;;;20.90;8.80;;;;;;;;;;5026645;28;20085;-71
2024/01/13 04:21:16;;;;;;;15.50;8.95;;;;;;;;;;5027700;28;20124;-71
2024/01/13 04:23:42;;;;;;;17.65;9.00;;;;;;;;;;5027946;28;20479;-71
2024/01/13 04:26:08;;;;;;;21.00;9.55;;;;;;;;;;5025402;28;20057;-71
2024/01/13 04:28:34;;;;;;;19.85;9.73;;;;;;;;;;5031825;28;20126;-70
2024/01/13 04:31:00;;;;;;;22.30;9.05;;;;;;;;;;5010678;28;20041;-70
2024/01/13 04:33:26;;;;;;;21.50;10.15;;;;;;;;;;5026465;28;20152;-70
2024/01/13 04:35:52;;;;;;;20.02;9.32;;;;;;;;;;5025267;28;20045;-70
2024/01/13 04:38:18;;;;;;;21.88;9.05;;;;;;;;;;5025904;28;20037;-70
2024/01/13 04:40:47;;;;;;;20.55;9.40;;;;;;;;;;5023539;28;20049;-70
2024/01/13 04:43:13;;;;;;;22.33;9.85;;;;;;;;;;5028278;28;20143;-70
2024/01/13 04:45:39;;;;;;;22.05;10.07;;;;;;;;;;5009381;28;20068;-70
2024/01/13 04:48:06;;;;;;;24.52;9.70;;;;;;;;;;5023855;28;20052;-70
2024/01/13 04:50:32;;;;;;;20.02;9.88;;;;;;;;;;5024964;28;20059;-70
2024/01/13 04:52:58;;;;;;;19.50;8.98;;;;;;;;;;5028728;28;20049;-71
2024/01/13 04:55:24;;;;;;;17.30;8.23;;;;;;;;;;5026126;28;20064;-71
2024/01/13 04:57:50;;;;;;;17.92;9.07;;;;;;;;;;5025777;28;20077;-71
2024/01/13 05:00:16;;;;;;;16.73;7.45;;;;;;;;;;5024978;28;20040;-71
2024/01/13 05:02:42;;;;;;;17.35;8.02;;;;;;;;;;5026639;28;20062;-70
2024/01/13 05:05:09;;;;;;;16.63;8.15;;;;;;;;;;5008555;28;20052;-70
2024/01/13 05:07:36;;;;;;;17.85;8.40;;;;;;;;;;5027189;28;20115;-70
2024/01/13 05:10:03;;;;;;;15.10;8.43;;;;;;;;;;5022500;28;20151;-70
2024/01/13 05:12:29;;;;;;;17.85;7.93;;;;;;;;;;5027018;28;20140;-70
2024/01/13 05:14:55;;;;;;;14.73;7.15;;;;;;;;;;5024950;28;20051;-71
2024/01/13 05:17:21;;;;;;;14.20;7.45;;;;;;;;;;5024356;28;21048;-69
2024/01/13 05:19:47;;;;;;;13.30;6.65;;;;;;;;;;5027055;28;20041;-68
2024/01/13 05:22:13;;;;;;;12.95;6.13;;;;;;;;;;5025537;28;20048;-69
2024/01/13 05:24:39;;;;;;;11.75;6.72;;;;;;;;;;5024114;28;20243;-70
2024/01/13 05:27:06;;;;;;;15.50;6.80;;;;;;;;;;5027607;28;21184;-69
2024/01/13 05:29:32;;;;;;;14.73;6.28;;;;;;;;;;5010623;28;20053;-69
2024/01/13 05:31:58;;;;;;;12.38;6.80;;;;;;;;;;5025635;28;20053;-69
2024/01/13 05:34:24;;;;;;;16.38;6.60;;;;;;;;;;5023281;28;20053;-69
2024/01/13 05:36:50;;;;;;;12.73;6.28;;;;;;;;;;5028905;28;20181;-69
2024/01/13 05:39:16;;;;;;;12.57;6.35;;;;;;;;;;5026400;28;20045;-69
2024/01/13 05:41:42;;;;;;;13.30;6.15;;;;;;;;;;5024565;28;20095;-69
2024/01/13 05:44:08;;;;;;;12.85;6.18;;;;;;;;;;5027827;28;20048;-69
2024/01/13 05:46:34;;;;;;;27.02;6.60;;;;;;;;;;5010519;28;20049;-69
2024/01/13 05:49:01;;;;;;;10.60;5.07;;;;;;;;;;5025737;28;20049;-70
2024/01/13 05:51:28;;;;;;;9.85;5.45;;;;;;;;;;5024115;28;20044;-71
2024/01/13 05:53:54;;;;;;;12.27;6.07;;;;;;;;;;5027179;28;20053;-70
2024/01/13 05:56:20;;;;;;;10.55;5.47;;;;;;;;;;5009280;28;21795;-71
2024/01/13 05:58:46;;;;;;;14.45;5.95;;;;;;;;;;5027548;28;20865;-71
2024/01/13 06:01:12;;;;;;;11.10;6.13;;;;;;;;;;5023136;28;20486;-71
2024/01/13 06:03:38;;;;;;;11.20;5.68;;;;;;;;;;5022915;28;20049;-71
2024/01/13 06:06:07;;;;;;;14.05;6.28;;;;;;;;;;5025345;28;20120;-71
2024/01/13 06:08:33;;;;;;;13.50;6.57;;;;;;;;;;5027931;28;20044;-71
2024/01/13 06:11:01;;;;;;;12.07;6.53;;;;;;;;;;5024105;28;20950;-71
2024/01/13 06:13:27;;;;;;;13.00;7.13;;;;;;;;;;5027714;28;20048;-71
2024/01/13 06:15:53;;;;;;;14.30;6.95;;;;;;;;;;5023144;28;20037;-71
2024/01/13 06:18:19;;;;;;;14.32;6.70;;;;;;;;;;5025678;28;20050;-71
2024/01/13 06:20:45;;;;;;;10.93;6.35;;;;;;;;;;5025372;28;20506;-70
2024/01/13 06:23:11;;;;;;;18.05;7.13;;;;;;;;;;5024192;28;20056;-71
2024/01/13 06:25:37;;;;;;;13.70;7.15;;;;;;;;;;5007604;28;20045;-71
2024/01/13 06:28:03;;;;;;;13.57;7.07;;;;;;;;;;5020626;28;20052;-71
2024/01/13 06:30:29;;;;;;;19.52;8.05;;;;;;;;;;5024970;28;20501;-71
2024/01/13 06:32:55;;;;;;;16.27;8.73;;;;;;;;;;5022235;28;20054;-71
2024/01/13 06:35:21;;;;;;;15.63;7.55;;;;;;;;;;5019200;28;20065;-71
2024/01/13 06:37:47;;;;;;;14.82;6.68;;;;;;;;;;5022366;28;20069;-70
2024/01/13 06:40:15;;;;;;;15.10;6.95;;;;;;;;;;5023814;28;20045;-71
2024/01/13 06:42:41;;;;;;;15.18;7.30;;;;;;;;;;5021677;28;20080;-71
2024/01/13 06:45:07;;;;;;;15.05;7.20;;;;;;;;;;5024197;28;20118;-71
2024/01/13 06:47:34;;;;;;;13.63;6.65;;;;;;;;;;5027252;28;20060;-71
2024/01/13 06:50:00;;;;;;;14.57;7.20;;;;;;;;;;5024791;28;20049;-71
2024/01/13 06:52:26;;;;;;;17.95;7.30;;;;;;;;;;5024952;28;20049;-71
2024/01/13 06:54:52;;;;;;;13.70;6.60;;;;;;;;;;5032613;28;20041;-71
2024/01/13 06:57:19;;;;;;;12.93;6.13;;;;;;;;;;5029437;28;20040;-71
2024/01/13 06:59:46;;;;;;;13.77;6.15;;;;;;;;;;5030022;28;20045;-71
2024/01/13 07:02:12;;;;;;;12.73;5.20;;;;;;;;;;5028631;28;20717;-71
2024/01/13 07:04:38;;;;;;;14.18;5.85;;;;;;;;;;5027840;28;20145;-71
2024/01/13 07:07:05;;;;;;;9.65;5.32;;;;;;;;;;5029673;28;20135;-71
2024/01/13 07:09:31;;;;;;;13.60;5.32;;;;;;;;;;5027039;28;20063;-70
2024/01/13 07:11:57;;;;;;;12.77;5.20;;;;;;;;;;5026154;28;20056;-71
2024/01/13 07:14:23;;;;;;;12.15;5.75;;;;;;;;;;5028147;28;20053;-71
2024/01/13 07:16:49;;;;;;;9.65;4.88;;;;;;;;;;5027046;28;20787;-71
2024/01/13 07:19:16;;;;;;;11.13;5.10;;;;;;;;;;5031608;28;20073;-70
2024/01/13 07:21:43;;;;;;;6.43;4.30;;;;;;;;;;5026941;28;20056;-71
2024/01/13 07:24:11;;;;;;;7.60;5.13;;;;;;;;;;5028073;28;20048;-71
2024/01/13 07:26:41;;;;;;;8.75;5.25;;;;;;;;;;5028061;28;22123;-71
2024/01/13 07:29:07;;;;;;;9.00;5.32;;;;;;;;;;5029090;28;20049;-71
2024/01/13 07:31:34;;;;;;;10.50;5.22;;;;;;;;;;5026002;28;20052;-71
2024/01/13 07:34:00;;;;;;;9.05;5.30;;;;;;;;;;5029555;28;20056;-71
2024/01/13 07:36:26;;;;;;;7.47;4.88;;;;;;;;;;5029716;28;20059;-71
2024/01/13 07:38:52;;;;;;;8.98;4.97;;;;;;;;;;5031128;28;20049;-71
2024/01/13 07:41:18;;;;;;;8.73;4.93;;;;;;;;;;5026521;28;20178;-71
2024/01/13 07:43:47;;;;;;;8.32;5.25;;;;;;;;;;5027597;28;20493;-70
2024/01/13 07:46:14;;;;;;;10.07;5.35;;;;;;;;;;5026565;28;20052;-70
2024/01/13 07:48:40;;;;;;;8.68;5.30;;;;;;;;;;5030476;28;20231;-71
2024/01/13 07:51:06;;;;;;;10.57;4.65;;;;;;;;;;5027326;28;20045;-71
2024/01/13 07:53:32;;;;;;;8.70;5.03;;;;;;;;;;5027822;28;20056;-71
2024/01/13 07:55:58;;;;;;;8.02;4.60;;;;;;;;;;5011579;28;20037;-71
2024/01/13 07:58:25;;;;;;;8.68;5.55;;;;;;;;;;5025171;28;20072;-71
2024/01/13 08:00:51;;;;;;;8.07;4.95;;;;;;;;;;5030382;28;20532;-71
2024/01/13 08:03:17;;;;;;;9.10;4.25;;;;;;;;;;5028030;28;20143;-71
2024/01/13 08:05:43;;;;;;;6.72;4.43;;;;;;;;;;5027991;28;20124;-71
2024/01/13 08:08:09;;;;;;;6.40;4.20;;;;;;;;;;5027724;28;20059;-71
2024/01/13 08:10:38;;;;;;;7.57;4.75;;;;;;;;;;5024095;28;20045;-71
2024/01/13 08:13:04;;;;;;;8.40;4.50;;;;;;;;;;5025764;28;20056;-71
2024/01/13 08:15:30;;;;;;;7.13;4.72;;;;;;;;;;5030861;28;20049;-71
2024/01/13 08:17:56;;;;;;;7.20;4.50;;;;;;;;;;5027221;28;21007;-70
2024/01/13 08:20:22;;;;;;;9.10;5.03;;;;;;;;;;5029350;28;20079;-70
2024/01/13 08:22:48;;;;;;;13.20;5.50;;;;;;;;;;5025301;28;20046;-70
2024/01/13 08:25:14;;;;;;;10.60;5.78;;;;;;;;;;5028114;28;20102;-70
2024/01/13 08:27:40;;;;;;;12.82;6.13;;;;;;;;;;5027703;28;20414;-70
2024/01/13 08:30:07;;;;;;;12.32;6.57;;;;;;;;;;5029629;28;20576;-70
2024/01/13 08:32:33;;;;;;;17.02;7.85;;;;;;;;;;5027285;28;20575;-70
2024/01/13 08:35:00;;;;;;;16.90;8.27;;;;;;;;;;5027917;28;20154;-70
2024/01/13 08:37:26;;;;;;;21.00;9.30;;;;;;;;;;5011642;28;20076;-70
2024/01/13 08:39:52;;;;;;;24.73;10.65;;;;;;;;;;5025778;28;20556;-70
2024/01/13 08:42:18;;;;;;;28.77;12.05;;;;;;;;;;5026888;28;20055;-70
2024/01/13 08:44:44;;;;;;;25.95;12.80;;;;;;;;;;5025877;28;20045;-70
2024/01/13 08:47:10;;;;;;;31.75;13.45;;;;;;;;;;5025525;28;20127;-71
2024/01/13 08:49:36;;;;;;;34.42;14.40;;;;;;;;;;5026342;28;20083;-70
2024/01/13 08:52:02;;;;;;;35.35;15.18;;;;;;;;;;5025411;28;20064;-70
2024/01/13 08:54:28;;;;;;;42.83;17.98;;;;;;;;;;5022830;28;20063;-70
2024/01/13 08:56:54;;;;;;;45.38;19.88;;;;;;;;;;5031028;28;20055;-70
2024/01/13 08:59:20;;;;;;;41.30;18.90;;;;;;;;;;5024033;28;20971;-70
2024/01/13 09:01:46;;;;;;;51.13;18.77;;;;;;;;;;5025677;28;20057;-70
2024/01/13 09:04:12;;;;;;;51.05;19.73;;;;;;;;;;5025436;28;20049;-70
2024/01/13 09:06:39;;;;;;;51.05;22.23;;;;;;;;;;5022822;28;20147;-70
2024/01/13 09:09:05;;;;;;;55.80;22.45;;;;;;;;;;5027988;28;20041;-70
2024/01/13 09:11:31;;;;;;;60.88;25.45;;;;;;;;;;5023981;28;20065;-70
2024/01/13 09:13:57;;;;;;;64.03;25.30;;;;;;;;;;5025902;28;20049;-71
2024/01/13 09:16:23;;;;;;;67.97;26.30;;;;;;;;;;5024612;28;20045;-71
2024/01/13 09:18:49;;;;;;;67.70;25.65;;;;;;;;;;5024925;28;20041;-71
2024/01/13 09:21:18;;;;;;;67.20;26.67;;;;;;;;;;5022913;28;20044;-71
2024/01/13 09:23:44;;;;;;;71.88;27.60;;;;;;;;;;5024722;28;20096;-71
2024/01/13 09:26:10;;;;;;;64.63;27.30;;;;;;;;;;5026672;28;20119;-70
2024/01/13 09:28:36;;;;;;;79.95;31.25;;;;;;;;;;5032513;28;20131;-71
2024/01/13 09:31:02;;;;;;;85.90;33.00;;;;;;;;;;5027879;28;20465;-70
2024/01/13 09:33:29;;;;;;;88.90;32.97;;;;;;;;;;5027147;28;20525;-71
2024/01/13 09:35:55;;;;;;;93.43;34.58;;;;;;;;;;5024726;28;20045;-71
2024/01/13 09:38:21;;;;;;;95.53;37.75;;;;;;;;;;5027426;28;20137;-71
2024/01/13 09:40:47;;;;;;;98.05;37.70;;;;;;;;;;5023503;28;20045;-71
2024/01/13 09:43:26;;;;;;;98.43;39.17;;;;;;;;;;5025129;28;20045;-70
2024/01/13 09:45:53;;;;;;;91.60;39.28;;;;;;;;;;5024683;28;20049;-70
2024/01/13 09:48:19;;;;;;;102.20;41.25;;;;;;;;;;5024570;28;20678;-70
2024/01/13 09:50:47;;;;;;;93.88;40.45;;;;;;;;;;5021619;28;20049;-70
2024/01/13 09:53:18;;;;;;;91.05;40.70;;;;;;;;;;5024585;28;20127;-70
2024/01/13 09:55:44;;;;;;;92.82;41.45;;;;;;;;;;5022213;28;20044;-71
2024/01/13 09:58:10;;;;;;;100.75;43.85;;;;;;;;;;5019746;28;20596;-70
2024/01/13 10:00:38;;;;;;;99.75;42.80;;;;;;;;;;5026336;28;20053;-71
2024/01/13 10:03:04;;;;;;;96.45;44.15;;;;;;;;;;5025735;28;20896;-70
2024/01/13 10:05:30;;;;;;;100.75;43.80;;;;;;;;;;5023165;28;20036;-71
2024/01/13 10:07:56;;;;;;;102.05;45.28;;;;;;;;;;5025480;28;20103;-71
2024/01/13 10:10:25;;;;;;;93.72;43.63;;;;;;;;;;5021234;28;20049;-70
2024/01/13 10:12:52;;;;;;;88.57;42.67;;;;;;;;;;5025968;28;20048;-70
2024/01/13 10:15:18;;;;;;;92.22;44.22;;;;;;;;;;5022123;28;20048;-70
2024/01/13 10:17:44;;;;;;;91.40;45.10;;;;;;;;;;5022898;28;20053;-70
2024/01/13 10:20:13;;;;;;;95.60;44.03;;;;;;;;;;5025013;28;20094;-70
2024/01/13 10:22:39;;;;;;;89.90;41.53;;;;;;;;;;5023420;28;20094;-70
2024/01/13 10:25:07;;;;;;;93.22;45.13;;;;;;;;;;5024206;28;20049;-70
2024/01/13 10:27:33;;;;;;;81.68;43.45;;;;;;;;;;5026054;28;20130;-70
2024/01/13 10:29:59;;;;;;;86.55;43.00;;;;;;;;;;5027774;28;20964;-70
2024/01/13 10:32:25;;;;;;;83.78;42.70;;;;;;;;;;5031309;28;20079;-71
2024/01/13 10:34:53;;;;;;;81.10;42.88;;;;;;;;;;5026586;28;20052;-70
2024/01/13 10:37:19;;;;;;;77.80;41.83;;;;;;;;;;5025550;28;20041;-70
2024/01/13 10:39:45;;;;;;;77.50;42.15;;;;;;;;;;5023843;28;20072;-70
2024/01/13 10:42:13;;;;;;;82.20;40.97;;;;;;;;;;5032602;28;20503;-70
2024/01/13 10:44:44;;;;;;;76.13;39.83;;;;;;;;;;5023885;28;20045;-70
2024/01/13 10:47:13;;;;;;;73.00;38.33;;;;;;;;;;5024316;28;20053;-71
2024/01/13 10:49:41;;;;;;;74.93;39.20;;;;;;;;;;5024709;28;21475;-70
2024/01/13 10:52:07;;;;;;;74.88;39.25;;;;;;;;;;5025774;28;20044;-70
2024/01/13 10:54:34;;;;;;;76.78;40.35;;;;;;;;;;5024930;28;20586;-70
2024/01/13 10:57:00;;;;;;;71.97;38.65;;;;;;;;;;5026592;28;20141;-71
2024/01/13 10:59:32;;;;;;;71.22;39.38;;;;;;;;;;5026834;28;20053;-70
2024/01/13 11:01:59;;;;;;;70.30;39.10;;;;;;;;;;5027498;28;20118;-70
2024/01/13 11:04:25;;;;;;;71.88;39.65;;;;;;;;;;5021343;28;20052;-69
2024/01/13 11:06:51;;;;;;;72.30;39.75;;;;;;;;;;5024877;28;20057;-70
2024/01/13 11:09:18;;;;;;;68.38;39.38;;;;;;;;;;5024177;28;20493;-69
2024/01/13 11:12:08;;;;;;;65.95;39.35;;;;;;;;;;5024256;28;20052;-70
2024/01/13 11:14:36;;;;;;;69.13;37.85;;;;;;;;;;5006071;28;20122;-70
2024/01/13 11:17:02;;;;;;;68.30;41.85;;;;;;;;;;5019918;28;20076;-70
2024/01/13 11:19:32;;;;;;;74.22;41.30;;;;;;;;;;5021267;28;20847;-70
2024/01/13 11:21:59;;;;;;;69.78;41.20;;;;;;;;;;5023735;28;20052;-70
2024/01/13 11:24:27;;;;;;;74.20;40.08;;;;;;;;;;5019730;28;20616;-70
2024/01/13 11:26:54;;;;;;;68.60;40.45;;;;;;;;;;5023518;28;20056;-70
2024/01/13 11:29:28;;;;;;;72.32;41.92;;;;;;;;;;5024755;28;20421;-70
2024/01/13 11:31:59;;;;;;;76.35;42.47;;;;;;;;;;5020341;28;20555;-70
2024/01/13 11:34:25;;;;;;;71.90;41.60;;;;;;;;;;5019126;28;20460;-70
2024/01/13 11:36:52;;;;;;;80.20;43.50;;;;;;;;;;5023055;28;20053;-71
2024/01/13 11:39:19;;;;;;;76.28;43.20;;;;;;;;;;5022475;28;20052;-71
2024/01/13 11:41:50;;;;;;;74.40;43.17;;;;;;;;;;5023562;28;20049;-71
2024/01/13 11:44:26;;;;;;;80.78;44.13;;;;;;;;;;5023186;28;20036;-71
2024/01/13 11:46:59;;;;;;;78.45;41.65;;;;;;;;;;5025130;28;20678;-71
2024/01/13 11:49:29;;;;;;;72.85;42.70;;;;;;;;;;5021939;28;20833;-70
2024/01/13 11:51:59;;;;;;;85.47;44.80;;;;;;;;;;5022557;28;20574;-71
2024/01/13 11:54:25;;;;;;;81.30;43.03;;;;;;;;;;5024187;28;20103;-71
2024/01/13 11:56:52;;;;;;;80.03;45.70;;;;;;;;;;5022465;28;20040;-71
2024/01/13 11:59:18;;;;;;;84.80;46.80;;;;;;;;;;5024312;28;20048;-71
2024/01/13 12:01:44;;;;;;;89.80;45.13;;;;;;;;;;5022099;28;20037;-71
2024/01/13 12:04:10;;;;;;;84.50;48.70;;;;;;;;;;5025888;28;20570;-71
2024/01/13 12:06:36;;;;;;;82.05;44.60;;;;;;;;;;5021099;28;20075;-71
2024/01/13 12:09:03;;;;;;;86.22;48.00;;;;;;;;;;5023439;28;20049;-71
2024/01/13 12:11:29;;;;;;;87.57;49.85;;;;;;;;;;5016828;28;20045;-71
2024/01/13 12:13:55;;;;;;;82.43;46.30;;;;;;;;;;5013348;28;20045;-71
2024/01/13 12:16:21;;;;;;;90.32;47.30;;;;;;;;;;5022932;28;20049;-71
2024/01/13 12:18:47;;;;;;;83.53;46.03;;;;;;;;;;5022723;28;21450;-71
2024/01/13 12:21:14;;;;;;;83.05;45.10;;;;;;;;;;5023306;28;20047;-71
2024/01/13 12:23:42;;;;;;;83.18;47.10;;;;;;;;;;5019077;28;20205;-71
2024/01/13 12:26:08;;;;;;;81.45;45.53;;;;;;;;;;5025046;28;20045;-71
2024/01/13 12:28:34;;;;;;;83.82;44.83;;;;;;;;;;5027787;28;20401;-71
2024/01/13 12:31:04;;;;;;;72.10;43.05;;;;;;;;;;5027068;28;20076;-71
2024/01/13 12:33:30;;;;;;;71.53;42.80;;;;;;;;;;5025482;28;20129;-71
2024/01/13 12:36:00;;;;;;;77.03;44.08;;;;;;;;;;5023488;28;20049;-70
2024/01/13 12:38:27;;;;;;;82.50;44.13;;;;;;;;;;5027289;28;20049;-71
2024/01/13 12:40:54;;;;;;;81.95;42.50;;;;;;;;;;5023438;28;21670;-71
2024/01/13 12:43:20;;;;;;;74.00;42.67;;;;;;;;;;5026790;28;20045;-71
2024/01/13 12:45:49;;;;;;;70.13;39.17;;;;;;;;;;5023097;28;20049;-72
2024/01/13 12:48:16;;;;;;;80.80;41.53;;;;;;;;;;5027029;28;20053;-70
2024/01/13 12:50:42;;;;;;;82.90;40.08;;;;;;;;;;5021308;28;20044;-70
2024/01/13 12:53:08;;;;;;;73.43;39.50;;;;;;;;;;5044847;28;20143;-70
2024/01/13 12:55:34;;;;;;;76.32;40.40;;;;;;;;;;5021920;28;20131;-70
2024/01/13 12:58:00;;;;;;;71.45;37.85;;;;;;;;;;5022051;28;20420;-71
2024/01/13 13:00:29;;;;;;;76.75;37.63;;;;;;;;;;5024775;28;20060;-71
2024/01/13 13:02:58;;;;;;;76.15;40.35;;;;;;;;;;5024100;28;20092;-71
2024/01/13 13:05:24;;;;;;;77.43;40.90;;;;;;;;;;5018816;28;20049;-71
2024/01/13 13:07:51;;;;;;;75.35;38.33;;;;;;;;;;5027061;28;20053;-71
2024/01/13 13:10:20;;;;;;;72.20;37.90;;;;;;;;;;5022277;28;20068;-71
2024/01/13 13:12:50;;;;;;;74.93;40.05;;;;;;;;;;5022892;28;20053;-70
2024/01/13 13:15:16;;;;;;;69.47;35.95;;;;;;;;;;5021683;28;20076;-70
2024/01/13 13:17:42;;;;;;;68.60;36.40;;;;;;;;;;5026945;28;20524;-70
2024/01/13 13:20:10;;;;;;;76.22;37.38;;;;;;;;;;5027067;28;20052;-70
2024/01/13 13:22:37;;;;;;;61.75;33.95;;;;;;;;;;5026569;28;20036;-70
2024/01/13 13:25:05;;;;;;;61.58;32.42;;;;;;;;;;5026523;28;20048;-70
2024/01/13 13:27:31;;;;;;;62.30;31.00;;;;;;;;;;5025153;28;20417;-70
2024/01/13 13:29:58;;;;;;;57.55;31.60;;;;;;;;;;5024475;28;20387;-71
2024/01/13 13:32:24;;;;;;;62.53;32.17;;;;;;;;;;5025936;28;20045;-70
2024/01/13 13:34:50;;;;;;;64.63;32.45;;;;;;;;;;5028652;28;20041;-70
2024/01/13 13:37:17;;;;;;;59.60;30.23;;;;;;;;;;5023973;28;20037;-70
2024/01/13 13:39:43;;;;;;;54.10;29.98;;;;;;;;;;5022672;28;20048;-70
2024/01/13 13:42:09;;;;;;;50.55;27.23;;;;;;;;;;5025791;28;20075;-70
2024/01/13 13:44:37;;;;;;;51.50;27.20;;;;;;;;;;5021005;28;20068;-70
2024/01/13 13:47:04;;;;;;;44.45;26.80;;;;;;;;;;5026308;28;20132;-70
2024/01/13 13:49:32;;;;;;;49.20;25.77;;;;;;;;;;5024628;28;20134;-70
2024/01/13 13:51:59;;;;;;;48.58;25.85;;;;;;;;;;5022289;28;20052;-70
2024/01/13 13:54:25;;;;;;;42.88;23.85;;;;;;;;;;5024122;28;20045;-70
2024/01/13 13:56:51;;;;;;;48.50;24.73;;;;;;;;;;5024647;28;20131;-70
2024/01/13 13:59:17;;;;;;;45.28;24.42;;;;;;;;;;5024142;28;20045;-71
2024/01/13 14:01:44;;;;;;;51.60;23.92;;;;;;;;;;5032178;28;20107;-71
2024/01/13 14:04:11;;;;;;;43.78;23.67;;;;;;;;;;5030810;28;20045;-71
2024/01/13 14:06:39;;;;;;;41.05;23.17;;;;;;;;;;5033895;28;20123;-71
2024/01/13 14:09:06;;;;;;;44.67;24.13;;;;;;;;;;5028837;28;20060;-70
2024/01/13 14:11:36;;;;;;;46.58;24.45;;;;;;;;;;5031303;28;20075;-71
2024/01/13 14:14:03;;;;;;;48.42;23.63;;;;;;;;;;5029224;28;20449;-70
2024/01/13 14:16:29;;;;;;;50.50;24.35;;;;;;;;;;5031754;28;20569;-70
2024/01/13 14:18:55;;;;;;;41.42;22.27;;;;;;;;;;5036054;28;20506;-70